Marysville, KS

7:19 AM CDT on August 24, 2016 (GMT -0500)
N0NB | | Change Station
Active Advisory: Flash Flood Watch

Elev 1318 ft 39.91 °N, 96.77 °W | Updated 5 seconds ago

Clear
Clear
66.5 °F
Feels Like 66.5 °F
N
0.0
Wind Variable Wind from North
Gusts 2.0 mph

Today
High -- | Low -- °F
--% Chance of Precip.
Yesterday
High -- | Low -- °F
Precip. -- in
Pressure 29.95 in
Visibility 7.0 miles
Clouds Clear
Dew Point 64 °F
Humidity 92%
Rainfall 0.00 in
Snow Depth Not available.
6:47 AM 8:09 PM
Waning Gibbous, 57% visible
METAR KBIE 241215Z AUTO 00000KT 7SM CLR 18/17 A2995 RMK AO2 T01780168
Pressure 29.95 in
Visibility 7.0 miles
Clouds Clear
Dew Point 64 °F
Humidity 92%
Rainfall 0.00 in
Snow Depth Not available.
6:47 AM 8:09 PM
Waning Gibbous, 57% visible
METAR KBIE 241215Z AUTO 00000KT 7SM CLR 18/17 A2995 RMK AO2 T01780168

10-Day Weather Forecast

Almanac

Astronomy

Aug. 24, 2016 Rise Set
Actual Time
Civil Twilight
Nautical Twilight
Astronomical Twilight
Moon
Length of Visible Light
Length of Day
Tomorrow will be .
, % of the Moon is Illuminated

Today's Extremes

State Highs State Lows

Community

WunderPhotos

Upload Photos

1,934,578 photos uploaded!

WunderBlog® & News

Nearby

Air Quality

  Air Quality AQ Index Pollutant
Not available.

Snow Depth

Station Depth Elevation

Earthquake Activity

City Distance Mag. Time & Date
Minimum magnitude displayed is 2.5.

Coastal Water Temperatures

Place Temperature

Stations

Nearby Weather Stations

Station Location Temp. Windchill Dew Point Humidity Wind Precip. Elev Updated Type
                   

Watches & Warnings

Flash Flood Watch
Issued: 4:04 AM CDT Aug. 24, 2016 – National Weather Service

... Flash Flood Watch in effect from this evening through Thursday
morning...

The National Weather Service in Topeka has issued a

* Flash Flood Watch for portions of north central Kansas and
northeast Kansas... including the following areas... in north
central Kansas... Clay and cloud. In northeast Kansas... Brown...
   Jackson... Marshall... Nemaha... Pottawatomie and Riley.

* From this evening through Thursday morning

* a front moves into the area this afternoon and
overnight... providing a focus for thunderstorms to potentially
move over the same areas and generate locally heavy rainfall
with possible flash flooding. Locations from a Concordia to
Holton line have already received 2 to 3 inches of rainfall
from tuesdays storms... and will be particularly susceptible to
possible flash flooding from heavy rainfall today and tonight.

Precautionary/preparedness actions...

A Flash Flood Watch means that conditions may develop that lead
to flash flooding. Flash flooding is a very dangerous situation.

You should monitor later forecasts and be prepared to take action
should flash flood warnings be issued.